Double Eagle Ii, NM

3:53 PM MDT on June 24, 2017 (GMT -0600)
Double Eagle Ii | | Change Station

Elev 5837 ft 35.15 °N, 106.79 °W | Updated 6 minutes ago

Smoke
Smoke
88 °F
Feels Like 86 °F
N
12
Wind Variable Wind from SE
Gusts 20 mph

Today
High -- | Low -- °F
--% Chance of Precip.
Yesterday
High -- | Low -- °F
Precip. -- in
Pressure 30.19 in
Visibility 6.0 miles
Clouds Scattered Clouds 12000 ft
Heat Index 86 °F
Dew Point 54 °F
Humidity 31%
Rainfall 0.00 in
Snow Depth Not available.
5:54 AM 8:25 PM
New Moon, 1% visible
METAR KAEG 242147Z 14010G17KT 6SM FU SCT120 31/12 A3019 RMK TCU DSNT S-NE
Pressure 30.19 in
Visibility 6.0 miles
Clouds Scattered Clouds 12000 ft
Heat Index 86 °F
Dew Point 54 °F
Humidity 31%
Rainfall 0.00 in
Snow Depth Not available.
5:54 AM 8:25 PM
New Moon, 1% visible
METAR KAEG 242147Z 14010G17KT 6SM FU SCT120 31/12 A3019 RMK TCU DSNT S-NE

Get Severe Weather Alerts

Thanks for signing up!

Be on the lookout for a verification email in your inbox.

You'll start receiving the daily forecast at 6 AM.

×

10-Day Weather Forecast

Almanac

Astronomy

Jun. 24, 2017 Rise Set
Actual Time
Civil Twilight
Nautical Twilight
Astronomical Twilight
Moon
Length of Visible Light
Length of Day
Tomorrow will be .
, % of the Moon is Illuminated

Today's Extremes

State Highs State Lows

Community

WunderPhotos

Category 6

Welcome to Category 6. This is the collective home for Weather Underground's featured writeups by Dr. Jeff Masters (right), Bob Henson (left), Chris Burt, and other regular contributors.

Nearby

Air Quality

  Air Quality AQ Index Pollutant
Not available.

Snow Depth

Station Depth Elevation

Earthquake Activity

City Distance Mag. Time & Date
Minimum magnitude displayed is 2.5.

Coastal Water Temperatures

Place Temperature

Stations

Nearby Weather Stations

Station Location Temp. Windchill Dew Point Humidity Wind Precip. Elev Updated Type
                   

Watches & Warnings

There are currently no watches in effect.